Time;durP1;ratioP1;P1;durP2;ratioP2;P2;SDS_P1;SDS_P2;PMS_P1;PMS_P2;Temp;Humidity;BMP_temperature;BMP_pressure;BME280_temperature;BME280_humidity;BME280_pressure;Samples;Min_cycle;Max_cycle;Signal;HPM_P1;HPM_P2
2022/02/26 00:01:35;;;;;;;5.70;2.95;;;3.50;83.90;;;;;;5000782;28;20137;-75
2022/02/26 00:04:02;;;;;;;9.00;3.15;;;3.50;83.70;;;;;;5004028;28;20046;-77
2022/02/26 00:06:36;;;;;;;6.63;2.40;;;3.50;83.70;;;;;;4996740;28;20050;-77
2022/02/26 00:09:04;;;;;;;5.80;2.35;;;3.50;83.70;;;;;;4983625;28;20110;-77
2022/02/26 00:11:40;;;;;;;5.93;2.92;;;3.50;83.60;;;;;;5002977;28;20045;-75
2022/02/26 00:14:08;;;;;;;7.28;2.30;;;3.40;83.60;;;;;;4998414;28;20085;-75
2022/02/26 00:16:37;;;;;;;5.25;2.63;;;3.40;83.60;;;;;;4993890;28;20097;-77
2022/02/26 00:19:08;;;;;;;7.45;3.38;;;3.40;83.60;;;;;;4993438;28;20053;-76
2022/02/26 00:21:35;;;;;;;7.45;2.80;;;3.40;83.70;;;;;;4998162;28;20108;-76
2022/02/26 00:24:06;;;;;;;4.75;2.13;;;3.40;83.80;;;;;;5002614;28;20049;-77
2022/02/26 00:26:34;;;;;;;4.82;2.17;;;3.40;83.90;;;;;;5000932;28;20792;-78
2022/02/26 00:29:01;;;;;;;7.45;3.00;;;3.40;84.10;;;;;;5001614;28;20058;-78
2022/02/26 00:31:34;;;;;;;3.92;2.63;;;3.50;84.30;;;;;;4997071;28;20057;-76
2022/02/26 00:34:07;;;;;;;6.82;2.45;;;3.50;84.30;;;;;;4995945;28;20787;-78
2022/02/26 00:36:39;;;;;;;5.85;2.53;;;3.50;84.30;;;;;;5001431;28;20174;-78
2022/02/26 00:39:08;;;;;;;4.65;2.20;;;3.50;84.40;;;;;;5001279;28;20089;-77
2022/02/26 00:41:38;;;;;;;5.63;2.67;;;3.50;84.50;;;;;;4995009;28;20042;-78
2022/02/26 00:44:15;;;;;;;5.35;2.72;;;3.50;84.50;;;;;;5004282;28;20060;-78
2022/02/26 00:46:45;;;;;;;7.63;2.42;;;3.50;84.50;;;;;;4996817;28;20070;-76
2022/02/26 00:52:07;;;;;;;3.90;1.92;;;3.50;84.50;;;;;;5000338;28;20041;-78
2022/02/26 00:54:36;;;;;;;3.55;1.85;;;3.50;84.50;;;;;;5005803;28;20052;-75
2022/02/26 00:57:04;;;;;;;3.65;1.55;;;3.50;84.50;;;;;;4999661;28;20045;-73
2022/02/26 00:59:35;;;;;;;4.47;1.33;;;3.50;84.50;;;;;;4992284;28;20443;-79
2022/02/26 01:02:06;;;;;;;2.80;1.33;;;3.50;84.50;;;;;;4989492;28;20046;-75
2022/02/26 01:04:37;;;;;;;3.38;1.42;;;3.40;84.60;;;;;;4996369;28;20050;-76
2022/02/26 01:07:16;;;;;;;4.05;1.90;;;3.40;84.70;;;;;;4994309;28;20050;-74
2022/02/26 01:09:49;;;;;;;3.60;1.95;;;3.40;84.70;;;;;;4994191;28;20096;-76
2022/02/26 01:12:22;;;;;;;;;;;3.40;84.70;;;;;;4996139;28;20053;-78
2022/02/26 01:14:53;;;;;;;2.70;1.45;;;3.40;84.80;;;;;;5000247;28;19930;-78
2022/02/26 01:17:21;;;;;;;4.32;1.65;;;3.40;84.80;;;;;;4995050;28;20496;-78
2022/02/26 01:19:53;;;;;;;4.20;2.00;;;3.40;84.70;;;;;;4991297;28;20069;-75
2022/02/26 01:25:11;;;;;;;5.47;1.85;;;3.30;84.80;;;;;;4994446;28;20054;-73
2022/02/26 01:30:36;;;;;;;4.45;2.10;;;3.30;84.70;;;;;;4984988;28;20088;-78
2022/02/26 01:33:54;;;;;;;4.57;1.95;;;3.20;84.70;;;;;;4994191;28;20046;-74
2022/02/26 01:37:05;;;;;;;;;;;;;;;;;;;;;
2022/02/26 01:39:42;;;;;;;3.00;1.58;;;3.30;84.60;;;;;;4924775;28;20497;-77
2022/02/26 01:42:14;;;;;;;6.72;3.13;;;3.30;84.60;;;;;;4920869;28;20044;-76
2022/02/26 01:44:48;;;;;;;6.75;3.15;;;3.20;84.70;;;;;;4921725;28;20071;-74
2022/02/26 01:47:25;;;;;;;7.60;3.05;;;3.20;84.60;;;;;;4986237;28;20118;-76
2022/02/26 01:49:53;;;;;;;6.72;2.80;;;3.20;84.70;;;;;;4991761;28;20061;-74
2022/02/26 01:52:31;;;;;;;5.80;2.40;;;3.20;84.70;;;;;;4997297;28;20058;-75
2022/02/26 01:55:00;;;;;;;5.20;2.42;;;3.20;84.80;;;;;;4992239;28;20108;-73
2022/02/26 01:57:30;;;;;;;7.03;2.28;;;3.20;84.70;;;;;;4994805;28;20078;-75
2022/02/26 02:00:16;;;;;;;4.65;2.50;;;3.20;84.70;;;;;;4995893;28;20574;-73
2022/02/26 02:02:47;;;;;;;6.22;2.72;;;3.20;84.70;;;;;;4993994;28;20123;-76
2022/02/26 02:05:14;;;;;;;7.35;3.33;;;3.20;84.70;;;;;;4991817;28;20057;-75
2022/02/26 02:07:46;;;;;;;6.28;2.40;;;3.20;84.70;;;;;;4979082;28;20049;-73
2022/02/26 02:10:14;;;;;;;5.80;2.95;;;3.20;84.70;;;;;;4995541;28;20041;-76
2022/02/26 02:12:43;;;;;;;5.00;2.58;;;3.20;84.70;;;;;;4994383;28;20057;-76
2022/02/26 02:15:17;;;;;;;5.88;2.47;;;3.20;84.80;;;;;;4993029;28;20531;-77
2022/02/26 02:17:55;;;;;;;6.22;2.08;;;3.20;84.90;;;;;;4975962;28;20049;-77
2022/02/26 02:20:26;;;;;;;6.35;2.83;;;3.20;84.90;;;;;;5003239;28;20053;-75
2022/02/26 02:23:10;;;;;;;7.53;3.38;;;3.20;84.80;;;;;;4993586;28;20124;-74
2022/02/26 02:25:39;;;;;;;6.25;1.98;;;3.20;84.90;;;;;;4992432;28;21998;-74
2022/02/26 02:28:10;;;;;;;5.72;2.15;;;3.20;85.00;;;;;;4999196;28;20528;-76
2022/02/26 02:30:40;;;;;;;5.00;1.73;;;3.30;85.00;;;;;;4996403;28;20046;-76
2022/02/26 02:33:09;;;;;;;7.07;3.55;;;3.20;85.00;;;;;;4979268;28;20046;-80
2022/02/26 02:35:59;;;;;;;3.40;1.58;;;3.20;85.00;;;;;;4997614;28;20058;-76
2022/02/26 02:38:32;;;;;;;3.05;1.70;;;3.20;85.10;;;;;;4999684;28;20687;-76
2022/02/26 02:41:28;;;;;;;4.57;2.00;;;3.30;85.10;;;;;;4994550;28;20049;-75
2022/02/26 02:44:10;;;;;;;4.15;1.73;;;3.20;85.20;;;;;;4998977;28;20054;-74
2022/02/26 02:47:10;;;;;;;2.03;0.98;;;3.20;85.20;;;;;;5000268;28;20078;-77
2022/02/26 02:49:37;;;;;;;3.75;1.50;;;3.20;85.10;;;;;;4996477;28;20134;-78
2022/02/26 02:52:22;;;;;;;6.35;1.65;;;3.20;85.20;;;;;;5002763;28;20101;-78
2022/02/26 02:54:54;;;;;;;2.45;1.05;;;3.30;85.20;;;;;;5001558;28;20050;-76
2022/02/26 02:57:24;;;;;;;3.97;1.50;;;3.30;85.20;;;;;;4999290;28;20042;-77
2022/02/26 03:00:01;;;;;;;4.40;1.85;;;3.30;85.10;;;;;;4998231;28;20675;-78
2022/02/26 03:02:44;;;;;;;4.85;2.15;;;3.30;85.10;;;;;;5002126;28;20042;-77
2022/02/26 03:05:18;;;;;;;2.80;1.63;;;3.30;85.00;;;;;;4996000;28;20077;-74
2022/02/26 03:07:51;;;;;;;2.70;1.60;;;3.20;85.10;;;;;;4996791;28;20062;-74
2022/02/26 03:10:22;;;;;;;4.35;2.03;;;3.20;85.10;;;;;;4993502;28;20466;-76
2022/02/26 03:13:33;;;;;;;;;;;;;;;;;;;;;
2022/02/26 03:16:01;;;;;;;4.07;1.92;;;3.20;85.20;;;;;;4993817;28;20050;-74
2022/02/26 03:18:34;;;;;;;3.15;1.52;;;3.20;85.10;;;;;;4991358;28;20200;-75
2022/02/26 03:21:04;;;;;;;5.55;1.75;;;3.10;85.20;;;;;;4993220;28;20050;-74
2022/02/26 03:24:21;;;;;;;7.50;2.55;;;3.10;85.10;;;;;;4996238;28;20245;-75
2022/02/26 03:27:21;;;;;;;5.10;2.00;;;3.10;85.10;;;;;;4897557;29;20067;-79
2022/02/26 03:29:54;;;;;;;6.20;2.30;;;3.10;85.00;;;;;;4866650;29;20114;-75
2022/02/26 03:32:21;;;;;;;7.70;2.92;;;3.10;84.80;;;;;;4889563;29;20060;-77
2022/02/26 03:34:52;;;;;;;3.97;2.22;;;3.00;84.80;;;;;;4925489;28;20053;-77
2022/02/26 03:37:31;;;;;;;6.82;2.83;;;3.10;84.70;;;;;;4990779;28;20062;-74
2022/02/26 03:40:05;;;;;;;;;;;3.10;84.80;;;;;;5001921;28;20045;-78
2022/02/26 03:42:45;;;;;;;5.65;2.10;;;3.10;84.80;;;;;;4999851;28;19930;-74
2022/02/26 03:45:16;;;;;;;7.50;2.83;;;3.10;84.80;;;;;;4997832;28;20045;-78
2022/02/26 03:48:16;;;;;;;6.63;3.20;;;3.00;84.90;;;;;;4998864;28;20053;-76
2022/02/26 03:50:45;;;;;;;6.30;3.13;;;3.10;85.10;;;;;;4992700;28;22042;-77
2022/02/26 03:53:13;;;;;;;9.43;4.43;;;3.10;85.10;;;;;;4967462;28;20515;-77
2022/02/26 03:55:52;;;;;;;7.97;3.75;;;3.10;85.10;;;;;;4986798;28;20281;-77
2022/02/26 03:58:27;;;;;;;8.77;3.75;;;3.10;85.30;;;;;;4995016;28;20062;-77
2022/02/26 04:00:55;;;;;;;9.57;3.90;;;3.00;85.40;;;;;;4986262;28;20147;-74
2022/02/26 04:03:23;;;;;;;6.47;3.50;;;3.00;85.40;;;;;;4990494;28;20061;-79
2022/02/26 04:09:45;;;;;;;12.15;4.40;;;3.00;85.30;;;;;;4985806;28;20597;-76
2022/02/26 04:12:47;;;;;;;8.25;4.15;;;3.00;85.30;;;;;;5001833;28;20038;-79
2022/02/26 04:15:20;;;;;;;6.50;2.40;;;3.00;85.20;;;;;;4987734;28;20078;-79
2022/02/26 04:17:48;;;;;;;4.85;2.33;;;3.00;85.10;;;;;;4987441;28;20053;-77
2022/02/26 04:20:25;;;;;;;6.65;2.53;;;3.00;85.00;;;;;;4986892;28;20049;-79
2022/02/26 04:22:55;;;;;;;9.35;2.70;;;3.00;84.90;;;;;;4986290;28;20050;-77
2022/02/26 04:25:23;;;;;;;6.97;2.70;;;2.90;84.70;;;;;;4987757;28;20053;-77
2022/02/26 04:27:51;;;;;;;5.63;2.33;;;2.90;84.60;;;;;;4984558;28;20046;-77
2022/02/26 04:30:22;;;;;;;5.97;1.92;;;2.80;84.60;;;;;;4981077;28;20046;-78
2022/02/26 04:32:49;;;;;;;3.92;1.73;;;2.80;84.60;;;;;;4982136;28;20054;-77
2022/02/26 04:35:16;;;;;;;3.75;2.03;;;2.80;84.50;;;;;;4982446;28;20760;-78
2022/02/26 04:37:43;;;;;;;5.38;2.28;;;2.70;84.50;;;;;;4987729;28;20054;-77
2022/02/26 04:40:15;;;;;;;5.40;2.27;;;2.70;84.40;;;;;;4986973;28;20057;-74
2022/02/26 04:42:51;;;;;;;5.78;2.40;;;2.70;84.40;;;;;;4988391;28;20101;-79
2022/02/26 04:45:19;;;;;;;6.32;2.13;;;2.70;84.30;;;;;;4966793;28;20082;-79
2022/02/26 04:47:50;;;;;;;3.47;2.20;;;2.70;84.30;;;;;;4983838;28;20047;-75
2022/02/26 04:50:17;;;;;;;4.45;2.50;;;2.70;84.20;;;;;;4983165;28;20044;-78
2022/02/26 04:52:45;;;;;;;4.65;2.17;;;2.70;84.20;;;;;;4987645;28;20042;-76
2022/02/26 04:55:14;;;;;;;4.25;1.92;;;2.70;84.10;;;;;;4984968;28;20128;-76
2022/02/26 04:57:42;;;;;;;3.83;1.67;;;2.70;84.10;;;;;;4988795;28;20152;-73
2022/02/26 05:00:12;;;;;;;7.10;3.00;;;2.70;84.10;;;;;;4987447;28;20034;-75
2022/02/26 05:02:43;;;;;;;7.27;2.63;;;2.60;84.00;;;;;;4972107;28;20050;-73
2022/02/26 05:05:12;;;;;;;5.00;2.22;;;2.60;84.10;;;;;;4987122;28;20046;-74
2022/02/26 05:07:40;;;;;;;6.82;2.95;;;2.60;84.10;;;;;;4986716;28;20046;-73
2022/02/26 05:10:09;;;;;;;6.32;2.80;;;2.60;84.20;;;;;;4986652;28;20049;-78
2022/02/26 05:12:36;;;;;;;5.93;2.83;;;2.60;84.20;;;;;;4987098;28;20042;-79
2022/02/26 05:15:06;;;;;;;5.90;2.88;;;2.60;84.10;;;;;;4983622;28;20042;-78
2022/02/26 05:17:39;;;;;;;6.25;2.90;;;2.60;84.30;;;;;;4990123;28;20586;-78
2022/02/26 05:20:14;;;;;;;6.60;3.03;;;2.60;84.40;;;;;;4984048;28;20053;-77
2022/02/26 05:22:42;;;;;;;8.88;3.30;;;2.60;84.50;;;;;;4990492;28;20056;-76
2022/02/26 05:25:11;;;;;;;7.53;2.92;;;2.70;84.70;;;;;;4992944;28;20046;-77
2022/02/26 05:27:44;;;;;;;6.63;3.40;;;2.70;84.70;;;;;;4988214;28;20100;-75
2022/02/26 05:30:15;;;;;;;10.60;3.25;;;2.70;84.70;;;;;;5001142;28;20065;-80
2022/02/26 05:32:43;;;;;;;9.23;3.47;;;2.70;84.80;;;;;;4994943;28;20050;-77
2022/02/26 05:35:18;;;;;;;10.68;3.10;;;2.60;85.00;;;;;;5002707;28;20076;-76
2022/02/26 05:37:48;;;;;;;15.27;4.88;;;2.70;85.00;;;;;;4995488;28;20415;-75
2022/02/26 05:40:16;;;;;;;6.82;3.03;;;2.70;85.10;;;;;;4994682;28;20054;-76
2022/02/26 05:42:46;;;;;;;7.78;3.70;;;2.60;85.20;;;;;;4991383;28;20491;-77
2022/02/26 05:45:14;;;;;;;9.45;3.92;;;2.60;85.30;;;;;;4997956;28;20130;-76
2022/02/26 05:47:42;;;;;;;10.10;4.38;;;2.60;85.30;;;;;;4995189;28;20065;-78
2022/02/26 05:50:13;;;;;;;9.25;3.97;;;2.60;85.40;;;;;;4996481;28;20657;-78
2022/02/26 05:52:42;;;;;;;9.07;4.20;;;2.60;85.50;;;;;;4995340;28;20046;-76
2022/02/26 05:55:12;;;;;;;10.55;3.80;;;2.60;85.50;;;;;;4994732;28;20412;-75
2022/02/26 05:57:43;;;;;;;8.98;4.40;;;2.60;85.50;;;;;;4995984;28;20675;-78
2022/02/26 06:00:11;;;;;;;8.73;4.13;;;2.60;85.50;;;;;;4992713;28;20049;-76
2022/02/26 06:02:41;;;;;;;10.60;3.67;;;2.60;85.60;;;;;;4997108;28;20137;-76
2022/02/26 06:05:12;;;;;;;8.95;4.18;;;2.60;85.50;;;;;;4998086;28;20050;-81
2022/02/26 06:07:39;;;;;;;7.53;3.42;;;2.60;85.50;;;;;;4997619;28;20136;-78
2022/02/26 06:10:16;;;;;;;11.30;4.32;;;2.70;85.50;;;;;;4993460;28;21147;-77
2022/02/26 06:12:47;;;;;;;7.38;3.97;;;2.60;85.60;;;;;;4998217;28;20045;-76
2022/02/26 06:15:17;;;;;;;9.57;4.03;;;2.60;85.60;;;;;;4992629;28;20042;-76
2022/02/26 06:17:56;;;;;;;9.15;3.83;;;2.70;85.60;;;;;;4980332;28;20054;-78
2022/02/26 06:20:29;;;;;;;13.15;3.88;;;2.60;85.60;;;;;;4994861;28;20053;-77
2022/02/26 06:22:56;;;;;;;9.80;4.78;;;2.60;85.60;;;;;;4974622;28;20053;-79
2022/02/26 06:25:26;;;;;;;12.57;4.45;;;2.70;85.60;;;;;;4990027;28;20129;-79
2022/02/26 06:27:58;;;;;;;12.48;4.88;;;2.70;85.60;;;;;;4995344;28;20072;-76
2022/02/26 06:30:33;;;;;;;7.75;3.90;;;2.70;85.60;;;;;;4994867;28;20145;-77
2022/02/26 06:33:02;;;;;;;9.32;3.65;;;2.70;85.60;;;;;;4997712;28;20132;-77
2022/02/26 06:35:35;;;;;;;9.55;4.57;;;2.70;85.60;;;;;;4991703;28;20131;-76
2022/02/26 06:38:11;;;;;;;8.95;5.03;;;2.70;85.50;;;;;;4994760;28;20056;-76
2022/02/26 06:40:40;;;;;;;8.55;3.40;;;2.70;85.50;;;;;;4993831;28;20413;-75
2022/02/26 06:43:11;;;;;;;7.57;3.92;;;2.70;85.50;;;;;;4996720;28;20045;-77
2022/02/26 06:45:38;;;;;;;8.35;3.58;;;2.70;85.40;;;;;;4992111;28;20050;-77
2022/02/26 06:48:09;;;;;;;8.30;4.28;;;2.70;85.50;;;;;;4992976;28;20113;-80
2022/02/26 06:50:36;;;;;;;8.40;3.55;;;2.70;85.50;;;;;;4994244;28;20161;-78
2022/02/26 06:53:04;;;;;;;9.30;3.90;;;2.70;85.60;;;;;;4995903;28;20050;-78
2022/02/26 06:55:33;;;;;;;11.43;4.03;;;2.60;85.60;;;;;;4997039;28;20052;-79
2022/02/26 06:58:03;;;;;;;6.95;3.92;;;2.60;85.60;;;;;;4996099;28;20567;-78
2022/02/26 07:00:32;;;;;;;9.48;3.65;;;2.70;85.70;;;;;;4970444;28;20052;-77
2022/02/26 07:03:08;;;;;;;6.85;3.85;;;2.70;85.70;;;;;;4995628;28;20158;-79
2022/02/26 07:05:38;;;;;;;10.57;3.70;;;2.70;85.70;;;;;;4996278;28;20042;-75
2022/02/26 07:08:05;;;;;;;7.60;3.53;;;2.70;85.70;;;;;;4996936;28;20575;-75
2022/02/26 07:10:33;;;;;;;8.65;3.53;;;2.70;85.80;;;;;;4995012;28;20125;-80
2022/02/26 07:13:11;;;;;;;9.75;4.43;;;2.70;85.70;;;;;;4994987;28;20495;-78
2022/02/26 07:15:38;;;;;;;8.05;4.22;;;2.80;85.80;;;;;;4995198;28;20045;-80
2022/02/26 07:18:09;;;;;;;8.90;3.40;;;2.80;85.70;;;;;;4996697;28;20096;-79
2022/02/26 07:20:36;;;;;;;;;;;2.80;85.70;;;;;;4992971;28;20107;-78
2022/02/26 07:23:20;;;;;;;8.43;4.45;;;2.80;85.80;;;;;;4984570;28;19937;-77
2022/02/26 07:25:54;;;;;;;11.13;4.17;;;2.80;85.70;;;;;;4997673;28;20050;-79
2022/02/26 07:28:29;;;;;;;9.65;3.42;;;2.90;85.80;;;;;;4997778;28;20468;-78
2022/02/26 07:31:02;;;;;;;8.15;3.60;;;2.90;85.80;;;;;;4981276;28;20050;-76
2022/02/26 07:33:36;;;;;;;8.00;4.18;;;2.90;85.80;;;;;;4976668;28;20058;-76
2022/02/26 07:36:19;;;;;;;9.70;4.10;;;2.90;85.80;;;;;;4992735;28;20054;-76
2022/02/26 07:38:51;;;;;;;5.80;2.97;;;2.90;85.80;;;;;;4991402;28;20050;-74
2022/02/26 07:41:18;;;;;;;6.72;3.53;;;2.90;85.80;;;;;;4991456;28;20154;-77
2022/02/26 07:43:47;;;;;;;6.78;3.22;;;2.90;85.70;;;;;;4993233;28;20073;-78
2022/02/26 07:46:18;;;;;;;12.35;4.03;;;3.00;85.80;;;;;;4995267;28;20079;-76
2022/02/26 07:48:45;;;;;;;7.00;2.85;;;3.00;85.80;;;;;;4991836;28;20077;-74
2022/02/26 07:51:15;;;;;;;7.97;3.22;;;3.00;85.80;;;;;;4992884;28;20046;-78
2022/02/26 07:53:45;;;;;;;6.68;3.30;;;3.10;85.90;;;;;;4995499;28;20053;-75
2022/02/26 07:56:19;;;;;;;7.57;3.30;;;3.10;85.90;;;;;;4995251;28;20045;-75
2022/02/26 07:58:58;;;;;;;7.88;3.17;;;3.20;85.90;;;;;;4980669;28;20415;-76
2022/02/26 08:01:48;;;;;;;8.18;4.30;;;3.20;85.90;;;;;;4994298;28;20127;-74
2022/02/26 08:04:21;;;;;;;8.05;3.42;;;3.20;85.90;;;;;;4995141;28;20054;-73
2022/02/26 08:06:48;;;;;;;7.55;2.90;;;3.20;85.80;;;;;;4996564;28;20223;-75
2022/02/26 08:09:21;;;;;;;7.97;3.42;;;3.30;85.80;;;;;;4992165;28;20054;-73
2022/02/26 08:11:52;;;;;;;9.20;3.40;;;3.30;85.80;;;;;;4992519;28;20046;-78
2022/02/26 08:14:20;;;;;;;6.13;3.08;;;3.30;85.70;;;;;;4991675;28;20050;-77
2022/02/26 08:16:49;;;;;;;9.50;3.58;;;3.30;85.70;;;;;;4992275;28;20050;-77
2022/02/26 08:19:19;;;;;;;7.93;3.58;;;3.30;85.70;;;;;;4973215;28;20042;-77
2022/02/26 08:24:28;;;;;;;6.18;4.05;;;3.30;85.70;;;;;;4988871;28;19937;-77
2022/02/26 08:26:58;;;;;;;7.05;3.90;;;3.30;85.70;;;;;;4990918;28;20046;-75
2022/02/26 08:29:27;;;;;;;11.05;3.05;;;3.30;85.70;;;;;;4993389;28;20435;-78
2022/02/26 08:31:55;;;;;;;6.40;3.67;;;3.30;85.70;;;;;;4991397;28;20042;-75
2022/02/26 08:34:25;;;;;;;6.90;3.60;;;3.40;85.70;;;;;;4993779;28;20152;-74
2022/02/26 08:37:01;;;;;;;7.20;3.05;;;3.40;85.80;;;;;;4991580;28;20057;-77
2022/02/26 08:39:30;;;;;;;9.25;3.60;;;3.50;85.80;;;;;;4991086;28;20050;-79
2022/02/26 08:42:00;;;;;;;6.78;3.45;;;3.50;85.90;;;;;;4991081;28;20118;-77
2022/02/26 08:44:38;;;;;;;12.07;4.35;;;3.50;86.00;;;;;;4992378;28;20410;-73
2022/02/26 08:47:06;;;;;;;9.18;3.35;;;3.60;86.10;;;;;;4992583;28;20168;-76
2022/02/26 08:49:34;;;;;;;7.43;4.15;;;3.60;86.20;;;;;;4995003;28;20338;-75
2022/02/26 08:52:19;;;;;;;7.30;3.60;;;3.70;86.40;;;;;;4994781;28;20110;-76
2022/02/26 08:54:53;;;;;;;7.80;3.50;;;3.80;86.40;;;;;;4995313;28;20701;-77
2022/02/26 08:57:21;;;;;;;12.27;4.78;;;3.90;86.30;;;;;;4994105;28;20077;-76
2022/02/26 08:59:55;;;;;;;5.90;2.90;;;4.00;86.40;;;;;;4993780;28;20310;-76
2022/02/26 09:02:22;;;;;;;8.07;3.67;;;4.10;86.30;;;;;;4991997;28;20117;-76
2022/02/26 09:05:03;;;;;;;8.05;4.03;;;4.20;86.10;;;;;;4994124;28;20058;-77
2022/02/26 09:07:34;;;;;;;9.23;3.22;;;4.20;85.90;;;;;;4994683;28;20073;-78
2022/02/26 09:10:02;;;;;;;6.25;2.88;;;4.30;86.00;;;;;;4995108;28;20050;-79
2022/02/26 09:12:29;;;;;;;7.78;3.53;;;4.40;85.90;;;;;;4993756;28;20046;-77
2022/02/26 09:14:58;;;;;;;9.77;3.03;;;4.40;85.90;;;;;;4994148;28;20053;-77
2022/02/26 09:17:29;;;;;;;7.35;3.03;;;4.60;86.00;;;;;;4994615;28;20058;-77
2022/02/26 09:19:56;;;;;;;8.85;4.03;;;4.60;86.00;;;;;;4992433;28;20042;-77
2022/02/26 09:22:23;;;;;;;8.60;3.53;;;4.70;85.90;;;;;;4993764;28;20045;-78
2022/02/26 09:24:53;;;;;;;7.72;3.78;;;4.80;85.90;;;;;;4993373;28;20046;-76
2022/02/26 09:27:21;;;;;;;8.13;3.88;;;4.90;85.80;;;;;;4994029;28;20042;-77
2022/02/26 09:29:51;;;;;;;11.23;3.65;;;4.90;85.90;;;;;;4997929;28;21635;-75
2022/02/26 09:32:27;;;;;;;12.10;4.00;;;5.00;85.60;;;;;;4994805;28;20127;-77
2022/02/26 09:35:14;;;;;;;10.10;3.20;;;5.00;85.40;;;;;;4995051;28;20519;-77
2022/02/26 09:37:52;;;;;;;6.70;3.03;;;5.10;85.40;;;;;;4994527;28;20103;-77
2022/02/26 09:40:26;;;;;;;7.78;2.92;;;5.10;85.40;;;;;;4991496;28;20065;-79
2022/02/26 09:43:04;;;;;;;6.60;3.72;;;5.10;85.20;;;;;;4983176;28;20050;-78
2022/02/26 09:45:39;;;;;;;10.18;4.05;;;5.10;85.10;;;;;;4997179;28;20125;-75
2022/02/26 09:48:08;;;;;;;13.05;4.78;;;5.10;85.10;;;;;;4991488;28;20038;-76
2022/02/26 09:50:36;;;;;;;10.43;4.60;;;5.20;84.90;;;;;;4992419;28;20041;-79
2022/02/26 09:53:03;;;;;;;7.80;2.97;;;5.20;84.80;;;;;;4994544;28;20038;-79
2022/02/26 09:55:35;;;;;;;6.28;4.10;;;5.20;85.10;;;;;;4975321;28;20066;-77
2022/02/26 09:58:05;;;;;;;11.05;4.45;;;5.30;85.20;;;;;;4996876;28;20288;-78
2022/02/26 10:00:39;;;;;;;6.72;3.65;;;5.40;85.20;;;;;;4994936;28;20045;-76
2022/02/26 10:03:08;;;;;;;9.32;3.08;;;5.50;85.00;;;;;;4993327;28;20050;-76
2022/02/26 10:05:36;;;;;;;11.50;4.47;;;5.60;85.20;;;;;;4994487;28;20045;-76
2022/02/26 10:08:21;;;;;;;8.43;2.78;;;5.70;84.90;;;;;;5002745;28;20076;-78
2022/02/26 10:10:52;;;;;;;10.73;3.90;;;5.80;84.60;;;;;;4973259;28;20121;-76
2022/02/26 10:13:26;;;;;;;6.15;2.40;;;5.90;84.50;;;;;;4997286;28;20058;-78
2022/02/26 10:15:55;;;;;;;8.20;2.42;;;6.00;84.50;;;;;;4997779;28;20050;-76
2022/02/26 10:18:25;;;;;;;4.20;2.13;;;6.10;84.10;;;;;;4994980;28;20555;-75
2022/02/26 10:20:54;;;;;;;10.18;2.58;;;6.20;83.80;;;;;;4999953;28;20051;-79
2022/02/26 10:23:24;;;;;;;9.15;2.90;;;6.30;83.50;;;;;;5001156;28;20053;-77
2022/02/26 10:25:52;;;;;;;7.25;3.05;;;6.40;83.10;;;;;;4981637;28;20046;-77
2022/02/26 10:28:22;;;;;;;9.30;2.72;;;6.50;82.90;;;;;;5000193;28;20061;-77
2022/02/26 10:30:50;;;;;;;9.77;2.80;;;6.60;82.60;;;;;;4998087;28;20057;-80
2022/02/26 10:33:22;;;;;;;;;;;6.60;81.80;;;;;;4997779;28;20558;-77
2022/02/26 10:35:54;;;;;;;6.40;2.70;;;6.60;81.70;;;;;;4996451;28;19929;-80
2022/02/26 10:38:27;;;;;;;8.30;2.00;;;6.50;80.70;;;;;;4994024;28;20128;-77
2022/02/26 10:40:57;;;;;;;7.30;2.30;;;6.50;79.70;;;;;;4997553;28;20050;-75
2022/02/26 10:43:55;;;;;;;10.35;2.63;;;6.40;79.50;;;;;;4997487;28;20060;-77
2022/02/26 10:46:28;;;;;;;6.78;1.70;;;6.40;78.60;;;;;;5000867;28;20042;-78
2022/02/26 10:49:00;;;;;;;7.20;2.20;;;6.40;79.00;;;;;;4998656;28;20042;-76
2022/02/26 10:51:31;;;;;;;4.28;1.92;;;6.40;79.40;;;;;;4996839;28;20056;-76
2022/02/26 10:54:02;;;;;;;7.18;2.28;;;6.50;79.50;;;;;;4995747;28;20049;-79
2022/02/26 10:56:35;;;;;;;8.07;2.50;;;6.50;79.30;;;;;;4994851;28;20207;-76
2022/02/26 10:59:04;;;;;;;7.25;2.35;;;6.60;79.00;;;;;;4996403;28;20830;-75
2022/02/26 11:01:32;;;;;;;4.65;1.48;;;6.60;78.90;;;;;;4990635;28;20064;-79
2022/02/26 11:04:03;;;;;;;8.55;2.22;;;6.60;79.10;;;;;;4994520;28;20046;-76
2022/02/26 11:06:37;;;;;;;2.80;1.27;;;6.70;78.90;;;;;;4991701;28;20173;-76
2022/02/26 11:09:04;;;;;;;8.55;1.40;;;6.70;78.80;;;;;;4997381;28;20061;-77
2022/02/26 11:11:33;;;;;;;4.88;1.73;;;6.80;78.80;;;;;;4994527;28;20061;-79
2022/02/26 11:14:03;;;;;;;2.97;1.25;;;6.80;78.30;;;;;;4993421;28;20372;-78
2022/02/26 11:16:35;;;;;;;11.48;1.67;;;6.90;77.70;;;;;;4993739;28;20062;-78
2022/02/26 11:19:03;;;;;;;3.75;0.93;;;6.90;77.70;;;;;;4991815;28;20068;-76
2022/02/26 11:21:35;;;;;;;5.00;1.40;;;6.90;76.70;;;;;;4993792;28;20117;-77
2022/02/26 11:24:04;;;;;;;6.57;1.63;;;6.80;75.80;;;;;;4995490;28;20053;-76
2022/02/26 11:26:33;;;;;;;6.13;1.02;;;6.90;75.60;;;;;;4995250;28;20176;-78
2022/02/26 11:29:05;;;;;;;3.92;1.05;;;6.90;75.20;;;;;;4993122;28;20594;-75
2022/02/26 11:31:38;;;;;;;3.15;0.95;;;6.90;75.30;;;;;;4996072;28;20574;-78
2022/02/26 11:34:08;;;;;;;6.40;1.10;;;6.90;75.20;;;;;;4994969;28;20869;-76
2022/02/26 11:36:55;;;;;;;5.43;1.10;;;7.00;74.60;;;;;;4987724;28;20076;-75
2022/02/26 11:39:29;;;;;;;3.88;1.00;;;7.00;74.20;;;;;;4995100;28;20048;-78
2022/02/26 11:42:33;;;;;;;3.58;1.17;;;7.00;75.10;;;;;;4992141;28;20056;-76
2022/02/26 11:45:07;;;;;;;3.08;0.90;;;7.00;75.40;;;;;;4947912;28;20055;-77
2022/02/26 11:47:44;;;;;;;4.32;1.10;;;7.00;74.70;;;;;;4946766;28;20055;-80
2022/02/26 11:50:17;;;;;;;3.50;0.80;;;7.10;74.40;;;;;;4932247;28;20042;-78
2022/02/26 11:52:50;;;;;;;6.82;0.85;;;7.00;73.20;;;;;;4961060;28;20057;-79
2022/02/26 11:55:25;;;;;;;5.53;1.10;;;7.10;73.50;;;;;;4994191;28;20160;-75
2022/02/26 11:57:54;;;;;;;6.10;1.73;;;7.00;73.50;;;;;;4994690;28;20042;-80
2022/02/26 12:00:22;;;;;;;4.30;0.70;;;7.10;73.60;;;;;;4989935;28;20129;-77
2022/02/26 12:03:23;;;;;;;4.03;0.85;;;7.10;73.70;;;;;;4995153;28;20060;-75
2022/02/26 12:05:53;;;;;;;6.95;1.10;;;7.10;73.00;;;;;;4992664;28;20077;-76
2022/02/26 12:08:39;;;;;;;2.95;0.82;;;7.10;72.80;;;;;;4995022;28;20137;-76
2022/02/26 12:11:09;;;;;;;3.88;0.82;;;7.10;71.90;;;;;;4993981;28;20042;-76
2022/02/26 12:13:38;;;;;;;6.22;0.60;;;7.10;71.80;;;;;;4995506;28;20046;-76
2022/02/26 12:16:26;;;;;;;1.00;0.30;;;7.10;72.10;;;;;;4992908;28;20062;-80
2022/02/26 12:18:58;;;;;;;5.00;0.68;;;7.10;72.30;;;;;;4994309;28;21666;-77
2022/02/26 12:21:30;;;;;;;5.25;0.82;;;7.10;71.80;;;;;;4990565;28;20394;-76
2022/02/26 12:24:15;;;;;;;5.97;1.05;;;7.20;72.40;;;;;;4991435;28;20479;-77
2022/02/26 12:26:44;;;;;;;3.15;0.52;;;7.20;72.20;;;;;;4993314;28;20054;-80
2022/02/26 12:29:30;;;;;;;1.80;0.90;;;7.20;72.30;;;;;;4992126;28;20045;-77
2022/02/26 12:32:00;;;;;;;4.05;0.65;;;7.20;72.60;;;;;;4992870;28;21969;-76
2022/02/26 12:34:29;;;;;;;5.20;0.75;;;7.30;72.60;;;;;;4992515;28;20041;-79
2022/02/26 12:37:17;;;;;;;3.75;0.68;;;7.30;72.50;;;;;;4995227;28;20080;-76
2022/02/26 12:39:50;;;;;;;3.55;1.10;;;7.40;72.10;;;;;;4992416;28;20073;-80
2022/02/26 12:42:28;;;;;;;3.88;1.02;;;7.40;72.00;;;;;;4980457;28;20050;-76
2022/02/26 12:45:04;;;;;;;2.78;0.88;;;7.40;71.30;;;;;;4993090;28;20131;-77
2022/02/26 12:47:32;;;;;;;2.90;0.90;;;7.50;70.60;;;;;;4992460;28;20049;-77
2022/02/26 12:50:03;;;;;;;6.25;1.25;;;7.60;70.90;;;;;;4990589;28;20046;-75
2022/02/26 12:52:33;;;;;;;3.95;0.98;;;7.60;70.90;;;;;;4992323;28;20049;-77
2022/02/26 12:55:06;;;;;;;4.63;1.10;;;7.60;71.00;;;;;;4990582;28;20800;-77
2022/02/26 12:57:38;;;;;;;5.20;0.68;;;7.70;70.80;;;;;;4992905;28;20041;-77
2022/02/26 13:00:08;;;;;;;5.47;0.90;;;7.60;70.80;;;;;;4991686;28;20603;-75
2022/02/26 13:02:43;;;;;;;9.00;1.65;;;7.70;70.90;;;;;;4990874;28;20053;-77
2022/02/26 13:05:11;;;;;;;5.43;1.58;;;7.60;70.70;;;;;;4993652;28;20141;-75
2022/02/26 13:07:45;;;;;;;2.70;0.80;;;7.60;69.90;;;;;;4994673;28;20091;-75
2022/02/26 13:10:14;;;;;;;4.07;0.70;;;7.50;69.00;;;;;;4992272;28;20053;-74
2022/02/26 13:12:45;;;;;;;2.47;0.85;;;7.50;69.50;;;;;;4992963;28;20046;-76
2022/02/26 13:15:15;;;;;;;4.45;0.90;;;7.40;69.50;;;;;;4991069;28;20571;-77
2022/02/26 13:17:48;;;;;;;5.88;1.50;;;7.40;69.50;;;;;;4990503;28;20041;-76
2022/02/26 13:20:23;;;;;;;6.82;0.90;;;7.40;69.40;;;;;;4993206;28;20440;-75
2022/02/26 13:22:53;;;;;;;9.20;1.48;;;7.50;69.30;;;;;;4971338;28;20559;-76
2022/02/26 13:25:24;;;;;;;9.10;2.00;;;7.50;68.90;;;;;;4993974;28;20522;-80
2022/02/26 13:27:55;;;;;;;7.20;1.77;;;7.50;69.70;;;;;;4995083;28;20054;-78
2022/02/26 13:30:26;;;;;;;4.80;1.85;;;7.50;70.00;;;;;;4993452;28;20057;-75
2022/02/26 13:32:54;;;;;;;6.68;1.67;;;7.50;70.30;;;;;;4968781;28;20054;-77
2022/02/26 13:35:29;;;;;;;4.72;2.58;;;7.50;70.30;;;;;;4990697;28;20084;-77
2022/02/26 13:38:18;;;;;;;7.05;2.85;;;7.50;70.20;;;;;;4982639;28;20058;-76
2022/02/26 13:40:49;;;;;;;7.53;2.45;;;7.60;69.30;;;;;;4989730;28;20054;-77
2022/02/26 13:43:32;;;;;;;10.73;2.83;;;7.50;69.40;;;;;;4996390;28;20521;-75
2022/02/26 13:46:06;;;;;;;4.80;1.48;;;7.50;69.90;;;;;;4994239;28;20108;-78